Time;durP1;ratioP1;P1;durP2;ratioP2;P2;SDS_P1;SDS_P2;PMS_P1;PMS_P2;Temp;Humidity;BMP_temperature;BMP_pressure;BME280_temperature;BME280_humidity;BME280_pressure;Samples;Min_cycle;Max_cycle;Signal;HPM_P1;HPM_P2
2023/10/16 00:00:29;;;;;;;6.60;4.10;;;;;;;7.81;59.72;101709.53;695832;28;1289;-94
2023/10/16 00:00:47;;;;;;;8.60;4.97;;;;;;;7.79;59.75;101702.47;688337;28;1408;-96
2023/10/16 00:01:11;;;;;;;11.93;5.47;;;;;;;7.79;59.84;101711.16;691081;28;1375;-95
2023/10/16 00:01:31;;;;;;;11.70;5.35;;;;;;;7.81;60.02;101711.25;693858;28;1188;-95
2023/10/16 00:01:54;;;;;;;8.73;4.35;;;;;;;7.80;59.82;101701.69;688048;28;1250;-95
2023/10/16 00:02:16;;;;;;;6.50;4.00;;;;;;;7.88;59.81;101723.78;693671;28;1336;-95
2023/10/16 00:02:37;;;;;;;7.00;4.10;;;;;;;7.87;59.72;101724.56;693919;28;1323;-95
2023/10/16 00:03:02;;;;;;;7.40;4.53;;;;;;;7.88;59.90;101723.78;693729;28;1280;-94
2023/10/16 00:03:23;;;;;;;7.53;4.40;;;;;;;7.88;59.78;101723.78;693822;28;1294;-95
2023/10/16 00:03:44;;;;;;;8.55;4.50;;;;;;;7.90;59.71;101727.34;691216;28;1318;-94
2023/10/16 00:04:06;;;;;;;8.55;4.20;;;;;;;7.82;59.62;101723.44;694114;28;1161;-95
2023/10/16 00:04:26;;;;;;;8.02;4.28;;;;;;;7.79;59.77;101707.66;691025;28;1887;-96
2023/10/16 00:04:47;;;;;;;6.33;4.07;;;;;;;7.84;59.68;101727.00;690630;28;1308;-95
2023/10/16 00:05:08;;;;;;;6.45;4.20;;;;;;;7.84;59.88;101731.34;693337;28;1259;-95
2023/10/16 00:05:38;;;;;;;7.10;4.40;;;;;;;7.83;59.79;101727.81;691220;28;1224;-95
2023/10/16 00:06:05;;;;;;;9.07;5.03;;;;;;;7.74;59.85;101710.00;692011;28;1272;-94
2023/10/16 00:06:26;;;;;;;8.43;4.90;;;;;;;7.82;59.76;101726.03;696779;28;1435;-94
2023/10/16 00:06:50;;;;;;;8.02;4.75;;;;;;;7.83;59.39;101720.03;693470;28;1384;-94
2023/10/16 00:07:27;;;;;;;6.93;4.32;;;;;;;7.81;59.81;101717.34;694105;28;1287;-94
2023/10/16 00:07:50;;;;;;;6.53;4.00;;;;;;;7.81;59.29;101719.06;697067;28;1306;-94
2023/10/16 00:08:12;;;;;;;6.07;4.20;;;;;;;7.73;59.60;101709.94;691494;28;1286;-94
2023/10/16 00:08:34;;;;;;;8.23;4.72;;;;;;;7.80;59.80;101719.88;696569;28;1243;-94
2023/10/16 00:09:03;;;;;;;8.55;4.82;;;;;;;7.78;59.62;101719.78;702642;28;1244;-93
2023/10/16 00:09:25;;;;;;;10.70;4.63;;;;;;;7.81;59.65;101719.94;697026;28;1184;-94
2023/10/16 00:09:55;;;;;;;10.52;4.60;;;;;;;7.78;59.61;101716.28;699950;28;1243;-95
2023/10/16 00:10:16;;;;;;;8.27;4.72;;;;;;;7.84;59.50;101728.72;696988;28;1220;-94
2023/10/16 00:10:37;;;;;;;7.43;4.50;;;;;;;7.80;59.71;101714.69;697096;28;1349;-94
2023/10/16 00:11:00;;;;;;;7.15;4.55;;;;;;;7.75;59.76;101714.41;702717;28;1254;-94
2023/10/16 00:11:25;;;;;;;7.45;4.43;;;;;;;7.78;59.72;101722.38;699701;28;1359;-94
2023/10/16 00:11:47;;;;;;;7.68;4.50;;;;;;;7.79;59.42;101724.16;696627;28;1237;-94
2023/10/16 00:12:08;;;;;;;6.88;4.13;;;;;;;7.74;59.78;101722.13;691487;28;1228;-94
2023/10/16 00:12:29;;;;;;;7.60;4.35;;;;;;;7.70;59.80;101715.88;696881;28;1313;-94
2023/10/16 00:12:50;;;;;;;6.90;4.65;;;;;;;7.65;60.04;101707.81;696511;28;1289;-95
2023/10/16 00:13:11;;;;;;;6.45;4.55;;;;;;;7.67;59.84;101711.38;690435;28;1201;-94
2023/10/16 00:13:37;;;;;;;6.25;4.30;;;;;;;7.67;59.67;101710.47;693999;28;1241;-94
2023/10/16 00:13:58;;;;;;;6.57;4.20;;;;;;;7.72;59.71;101729.84;691566;28;1373;-95
2023/10/16 00:14:23;;;;;;;6.50;4.20;;;;;;;7.70;59.63;101726.25;693461;28;1128;-95
2023/10/16 00:14:43;;;;;;;9.05;4.22;;;;;;;7.61;59.63;101716.25;693849;28;1315;-94
2023/10/16 00:15:05;;;;;;;9.27;4.18;;;;;;;7.71;59.43;101732.34;691008;28;1325;-95
2023/10/16 00:15:26;;;;;;;9.40;4.32;;;;;;;7.68;59.75;101727.88;688438;28;1255;-94
2023/10/16 00:15:49;;;;;;;5.70;4.05;;;;;;;7.66;59.64;101725.19;695838;28;1301;-95
2023/10/16 00:16:15;;;;;;;5.45;4.00;;;;;;;7.57;59.44;101711.69;693917;28;1195;-94
2023/10/16 00:16:35;;;;;;;5.13;4.18;;;;;;;7.56;59.81;101719.41;696501;28;1255;-94
2023/10/16 00:16:57;;;;;;;5.80;4.57;;;;;;;7.61;59.58;101731.84;696153;28;1305;-95
2023/10/16 00:17:21;;;;;;;6.47;4.78;;;;;;;7.61;59.84;101734.44;693695;28;1255;-95
2023/10/16 00:17:43;;;;;;;7.57;4.70;;;;;;;7.63;59.68;101734.53;688238;28;1331;-94
2023/10/16 00:18:09;;;;;;;8.15;4.60;;;;;;;7.60;59.55;101724.84;691039;28;1418;-94
2023/10/16 00:18:33;;;;;;;7.88;4.30;;;;;;;7.58;59.75;101731.66;690554;28;1332;-95
2023/10/16 00:18:57;;;;;;;7.57;4.30;;;;;;;7.57;59.98;101727.28;695944;28;1430;-94
2023/10/16 00:19:18;;;;;;;5.53;4.07;;;;;;;7.52;59.68;101724.44;695510;28;1265;-94
2023/10/16 00:19:39;;;;;;;5.47;3.92;;;;;;;7.50;59.55;101727.75;685375;28;1231;-94
2023/10/16 00:20:00;;;;;;;7.20;4.32;;;;;;;7.48;59.54;101713.75;690392;28;1373;-94
2023/10/16 00:20:25;;;;;;;9.05;4.45;;;;;;;7.46;59.45;101715.38;693276;28;1201;-94
2023/10/16 00:20:45;;;;;;;10.98;4.43;;;;;;;7.50;59.69;101727.75;688322;28;1354;-95
2023/10/16 00:21:06;;;;;;;12.48;4.60;;;;;;;7.45;59.62;101718.78;690520;28;1200;-94
2023/10/16 00:21:30;;;;;;;9.82;4.45;;;;;;;7.45;59.69;101724.91;693255;28;1270;-95
2023/10/16 00:21:52;;;;;;;9.80;4.45;;;;;;;7.40;59.73;101716.84;693413;28;1212;-95
2023/10/16 00:22:18;;;;;;;8.68;4.60;;;;;;;7.45;59.56;101730.09;693660;28;1530;-94
2023/10/16 00:22:39;;;;;;;8.35;4.75;;;;;;;7.38;59.30;101725.34;688502;28;1227;-95
2023/10/16 00:23:00;;;;;;;7.95;4.40;;;;;;;7.36;59.41;101720.06;693334;28;1285;-95
2023/10/16 00:23:30;;;;;;;8.13;4.30;;;;;;;7.34;59.70;101711.31;690387;28;1221;-95
2023/10/16 00:23:51;;;;;;;6.47;4.30;;;;;;;7.35;59.75;101723.47;693380;28;1309;-94
2023/10/16 00:24:12;;;;;;;8.15;4.10;;;;;;;7.37;59.89;101723.56;690813;28;1910;-94
2023/10/16 00:24:33;;;;;;;12.15;4.22;;;;;;;7.34;59.80;101724.28;688397;28;1310;-94
2023/10/16 00:24:58;;;;;;;11.48;4.05;;;;;;;7.33;59.48;101729.38;696513;28;1477;-94
2023/10/16 00:25:24;;;;;;;11.20;4.65;;;;;;;7.34;59.96;101732.09;693536;28;1429;-94
2023/10/16 00:25:46;;;;;;;7.03;4.18;;;;;;;7.36;59.75;101738.25;687938;28;1268;-95
2023/10/16 00:26:19;;;;;;;6.63;4.05;;;;;;;7.33;60.04;101725.09;693717;28;1286;-95
2023/10/16 00:26:49;;;;;;;8.05;4.70;;;;;;;7.27;59.72;101716.97;696453;28;1319;-94
2023/10/16 00:27:10;;;;;;;6.53;4.50;;;;;;;7.36;60.07;101730.47;688209;28;1351;-94
2023/10/16 00:27:34;;;;;;;8.32;4.70;;;;;;;7.34;59.99;101729.47;690967;28;1340;-95
2023/10/16 00:27:54;;;;;;;7.32;4.43;;;;;;;7.29;59.91;101710.13;691070;28;1319;-94
2023/10/16 00:28:15;;;;;;;6.55;4.35;;;;;;;7.38;59.80;101728.84;693578;28;1292;-95
2023/10/16 00:28:37;;;;;;;5.70;4.10;;;;;;;7.39;60.21;101733.22;696527;28;1183;-94
2023/10/16 00:29:42;;;;;;;6.55;4.20;;;;;;;7.36;60.06;101724.34;688593;28;1356;-94
2023/10/16 00:29:45;;;;;;;6.97;4.40;;;;;;;7.40;60.06;101726.34;682900;28;1200;-94
2023/10/16 00:30:08;;;;;;;6.53;4.30;;;;;;;7.45;60.18;101734.38;687810;28;1240;-94
2023/10/16 00:30:31;;;;;;;5.22;3.75;;;;;;;7.41;60.04;101728.13;693619;28;1451;-94
2023/10/16 00:30:51;;;;;;;5.60;3.80;;;;;;;7.41;60.07;101725.53;693783;28;1268;-95
2023/10/16 00:31:22;;;;;;;6.18;3.92;;;;;;;7.36;60.41;101711.38;696273;28;1176;-94
2023/10/16 00:31:43;;;;;;;7.13;4.28;;;;;;;7.48;60.24;101731.94;690821;28;1334;-94
2023/10/16 00:32:07;;;;;;;7.15;4.40;;;;;;;7.43;60.20;101725.63;688244;28;1338;-94
2023/10/16 00:32:30;;;;;;;6.45;4.55;;;;;;;7.48;60.07;101737.13;688218;28;1288;-94
2023/10/16 00:32:51;;;;;;;7.30;4.70;;;;;;;7.46;60.20;101729.28;691055;28;1215;-93
2023/10/16 00:33:14;;;;;;;6.88;4.60;;;;;;;7.46;60.33;101725.78;693547;28;1296;-94
2023/10/16 00:33:36;;;;;;;6.90;4.30;;;;;;;7.47;60.10;101724.97;690960;28;1225;-95
2023/10/16 00:33:59;;;;;;;7.03;4.35;;;;;;;7.47;60.07;101718.09;688346;28;1389;-95
2023/10/16 00:34:20;;;;;;;7.80;4.35;;;;;;;7.48;59.67;101724.16;696226;28;1392;-95
2023/10/16 00:34:41;;;;;;;6.47;4.53;;;;;;;7.48;60.37;101724.16;693580;28;1335;-94
2023/10/16 00:35:02;;;;;;;6.60;4.37;;;;;;;7.55;60.10;101728.88;688426;28;1139;-94
2023/10/16 00:35:24;;;;;;;6.38;4.32;;;;;;;7.54;59.95;101733.19;692970;28;1223;-94
2023/10/16 00:35:45;;;;;;;6.93;4.30;;;;;;;7.54;60.10;101724.50;688218;28;1237;-95
2023/10/16 00:36:07;;;;;;;13.07;4.50;;;;;;;7.50;60.23;101723.44;688311;28;1494;-94
2023/10/16 00:36:28;;;;;;;14.27;4.65;;;;;;;7.55;59.88;101734.06;696273;28;1398;-95
2023/10/16 00:37:01;;;;;;;15.80;4.90;;;;;;;7.52;60.29;101728.72;691007;28;1207;-94
2023/10/16 00:37:22;;;;;;;11.98;4.80;;;;;;;7.56;60.04;101738.50;690833;28;1341;-94
2023/10/16 00:37:43;;;;;;;9.80;4.50;;;;;;;7.53;60.16;101739.22;688148;28;1264;-94
2023/10/16 00:38:05;;;;;;;8.73;4.32;;;;;;;7.52;60.22;101733.91;695523;28;1433;-94
2023/10/16 00:38:26;;;;;;;8.40;4.30;;;;;;;7.48;59.95;101729.34;696356;28;1217;-94
2023/10/16 00:38:51;;;;;;;10.68;4.57;;;;;;;7.49;59.80;101729.44;690807;28;1446;-94
2023/10/16 00:39:12;;;;;;;8.95;4.40;;;;;;;7.47;59.64;101732.75;693548;28;1363;-94
2023/10/16 00:39:36;;;;;;;6.53;4.30;;;;;;;7.48;59.93;101737.13;693561;28;1375;-94
2023/10/16 00:39:56;;;;;;;6.20;4.22;;;;;;;7.48;59.90;101737.13;691014;28;1337;-95
2023/10/16 00:40:31;;;;;;;8.03;4.40;;;;;;;7.46;60.05;101733.56;690824;28;1226;-94
2023/10/16 00:41:32;;;;;;;8.23;4.20;;;;;;;7.46;60.10;101731.88;695654;28;1319;-94
2023/10/16 00:41:53;;;;;;;8.80;4.32;;;;;;;7.41;59.87;101725.53;685603;28;1215;-94
2023/10/16 00:42:14;;;;;;;8.05;4.32;;;;;;;7.42;60.11;101729.91;690639;28;1227;-94
2023/10/16 00:42:34;;;;;;;9.20;4.53;;;;;;;7.43;60.18;101736.00;696199;28;1235;-93
2023/10/16 00:43:05;;;;;;;8.57;4.50;;;;;;;7.39;59.75;101733.22;694305;28;1284;-94
2023/10/16 00:43:28;;;;;;;8.98;5.05;;;;;;;7.38;59.77;101734.03;696940;28;1322;-94
2023/10/16 00:43:48;;;;;;;9.75;5.00;;;;;;;7.37;59.84;101732.25;694271;28;1393;-94
2023/10/16 00:44:09;;;;;;;9.13;4.63;;;;;;;7.33;60.08;101722.50;691285;28;1983;-94
2023/10/16 00:44:36;;;;;;;9.20;4.28;;;;;;;7.35;59.87;101736.47;694059;28;1191;-94
2023/10/16 00:44:59;;;;;;;9.52;4.20;;;;;;;7.37;59.87;101739.16;696535;28;1191;-94
2023/10/16 00:45:21;;;;;;;12.70;4.40;;;;;;;7.35;60.04;101730.34;690985;28;1387;-94
2023/10/16 00:45:47;;;;;;;12.52;4.57;;;;;;;7.33;60.31;101731.97;691150;28;1396;-94
2023/10/16 00:46:09;;;;;;;11.40;4.93;;;;;;;7.32;59.75;101728.50;694148;28;1283;-94
2023/10/16 00:46:37;;;;;;;8.23;4.80;;;;;;;7.29;60.23;101717.94;693892;28;1482;-94
2023/10/16 00:46:58;;;;;;;7.63;4.90;;;;;;;7.38;60.11;101728.84;696492;28;1277;-94
2023/10/16 00:47:19;;;;;;;7.05;4.63;;;;;;;7.31;60.31;101721.50;688764;28;1338;-94
2023/10/16 00:47:40;;;;;;;10.48;4.63;;;;;;;7.34;59.84;101724.28;691125;28;1195;-94
2023/10/16 00:48:01;;;;;;;15.15;4.90;;;;;;;7.38;60.26;101730.56;691253;28;1291;-93
2023/10/16 00:48:22;;;;;;;13.52;4.50;;;;;;;7.33;60.11;101719.91;696197;28;1232;-94
2023/10/16 00:48:43;;;;;;;10.45;4.60;;;;;;;7.37;60.15;101729.66;693756;28;1313;-94
2023/10/16 00:49:07;;;;;;;5.40;4.22;;;;;;;7.38;59.96;101733.16;696512;28;1287;-94
2023/10/16 00:49:28;;;;;;;5.68;4.32;;;;;;;7.31;60.05;101728.41;696774;28;1226;-94
2023/10/16 00:49:50;;;;;;;6.20;4.20;;;;;;;7.33;59.78;101730.28;691635;28;1392;-94
2023/10/16 00:50:14;;;;;;;11.02;4.10;;;;;;;7.31;59.98;101723.22;695948;28;1334;-95
2023/10/16 00:50:35;;;;;;;11.40;4.40;;;;;;;7.31;60.01;101731.88;696617;28;1288;-94
2023/10/16 00:50:56;;;;;;;10.82;4.50;;;;;;;7.29;59.92;101732.63;688794;28;1242;-95
2023/10/16 00:51:17;;;;;;;8.23;4.40;;;;;;;7.24;60.02;101729.75;694013;28;1211;-94
2023/10/16 00:51:39;;;;;;;8.18;4.57;;;;;;;7.27;60.06;101735.13;695842;28;1354;-94
2023/10/16 00:52:03;;;;;;;8.15;4.38;;;;;;;7.28;60.13;101742.13;688812;28;1372;-94
2023/10/16 00:52:24;;;;;;;8.40;4.40;;;;;;;7.23;59.90;101738.34;694035;28;1335;-95
2023/10/16 00:52:46;;;;;;;9.32;4.50;;;;;;;7.17;60.08;101722.44;699568;28;1192;-94
2023/10/16 00:53:07;;;;;;;8.00;4.60;;;;;;;7.18;60.02;101724.22;696869;28;1226;-93
2023/10/16 00:53:28;;;;;;;8.43;4.70;;;;;;;7.20;60.03;101723.50;691452;28;1238;-94
2023/10/16 00:53:49;;;;;;;8.60;4.90;;;;;;;7.22;60.25;101741.75;694165;28;1264;-95
2023/10/16 00:54:18;;;;;;;10.40;5.00;;;;;;;7.25;59.98;101736.75;691288;28;1215;-94
2023/10/16 00:54:39;;;;;;;8.68;4.80;;;;;;;7.24;60.23;101735.84;696440;28;1407;-94
2023/10/16 00:55:00;;;;;;;7.85;4.78;;;;;;;7.23;60.35;101739.25;694118;28;1194;-94
2023/10/16 00:55:21;;;;;;;7.68;4.68;;;;;;;7.27;60.01;101745.53;691430;28;1277;-94
2023/10/16 00:55:42;;;;;;;7.90;4.88;;;;;;;7.21;60.41;101721.78;696911;28;1168;-94
2023/10/16 00:56:08;;;;;;;6.55;4.60;;;;;;;7.16;60.44;101715.44;697016;28;1514;-94
2023/10/16 00:56:30;;;;;;;6.35;4.38;;;;;;;7.18;60.11;101719.91;699727;28;1573;-94
2023/10/16 00:56:51;;;;;;;5.80;4.14;;;;;;;7.24;60.16;101727.16;691299;28;1338;-94
2023/10/16 00:57:13;;;;;;;5.97;4.18;;;;;;;7.26;60.10;101738.53;686036;28;1275;-94
2023/10/16 00:57:34;;;;;;;5.82;4.10;;;;;;;7.28;60.26;101736.91;693744;28;1341;-94
2023/10/16 00:57:57;;;;;;;5.85;3.80;;;;;;;7.30;60.00;101743.09;699671;28;1416;-94
2023/10/16 00:58:18;;;;;;;5.60;3.65;;;;;;;7.26;59.99;101738.53;693817;28;1347;-94
2023/10/16 00:58:40;;;;;;;5.93;3.90;;;;;;;7.21;60.14;101725.31;693560;28;1366;-94
2023/10/16 00:59:04;;;;;;;5.32;4.00;;;;;;;7.26;60.03;101733.34;688376;28;1288;-94
2023/10/16 00:59:25;;;;;;;5.20;4.03;;;;;;;7.26;60.08;101738.53;694126;28;1250;-94
2023/10/16 00:59:48;;;;;;;5.22;3.90;;;;;;;7.22;60.16;101731.38;696807;28;1318;-95
2023/10/16 01:00:13;;;;;;;6.07;4.07;;;;;;;7.18;60.19;101726.81;694192;28;1412;-94
2023/10/16 01:00:37;;;;;;;7.03;4.18;;;;;;;7.15;59.91;101718.84;694066;28;1428;-94
2023/10/16 01:01:04;;;;;;;7.50;4.47;;;;;;;7.15;60.16;101732.72;696272;28;1226;-94
2023/10/16 01:01:25;;;;;;;7.43;4.50;;;;;;;7.11;60.03;101722.97;696758;28;1255;-94
2023/10/16 01:01:47;;;;;;;8.25;4.53;;;;;;;7.15;59.86;101735.31;693913;28;1189;-94
2023/10/16 01:02:09;;;;;;;9.48;4.57;;;;;;;7.12;60.31;101728.25;694086;28;1262;-94
2023/10/16 01:02:32;;;;;;;9.15;4.50;;;;;;;7.16;59.97;101736.19;691348;28;1236;-94
2023/10/16 01:02:53;;;;;;;7.78;4.47;;;;;;;7.15;59.94;101737.91;691389;28;1326;-94
2023/10/16 01:03:20;;;;;;;8.10;4.50;;;;;;;7.10;59.59;101729.88;693558;28;1204;-94
2023/10/16 01:03:44;;;;;;;7.60;4.60;;;;;;;7.10;60.16;101734.16;693995;28;1381;-94
2023/10/16 01:04:05;;;;;;;6.60;4.70;;;;;;;7.07;60.24;101737.47;694230;28;1410;-95
2023/10/16 01:04:28;;;;;;;7.07;5.05;;;;;;;7.03;60.30;101725.13;691306;28;1923;-94
2023/10/16 01:04:52;;;;;;;9.95;4.63;;;;;;;7.04;60.31;101726.91;693470;28;1255;-94
2023/10/16 01:05:18;;;;;;;10.45;4.63;;;;;;;7.06;59.99;101729.59;694071;28;1212;-95
2023/10/16 01:05:42;;;;;;;10.48;4.40;;;;;;;7.07;59.92;101732.25;694012;28;1226;-94
2023/10/16 01:06:15;;;;;;;9.18;4.68;;;;;;;7.09;60.08;101729.78;696866;28;1386;-95
2023/10/16 01:06:38;;;;;;;7.43;4.47;;;;;;;7.07;60.37;101729.69;688361;28;1302;-94
2023/10/16 01:07:00;;;;;;;8.10;4.90;;;;;;;7.09;60.04;101738.47;696842;28;1260;-94
2023/10/16 01:07:23;;;;;;;9.50;5.30;;;;;;;7.09;60.51;101728.09;696736;28;1379;-94
2023/10/16 01:07:44;;;;;;;8.30;5.20;;;;;;;7.12;60.40;101732.53;691434;28;1414;-95
2023/10/16 01:08:07;;;;;;;8.25;4.90;;;;;;;7.10;60.31;101727.28;701765;28;1187;-95
2023/10/16 01:08:28;;;;;;;9.35;4.80;;;;;;;7.13;60.57;101732.63;696884;28;1247;-94
2023/10/16 01:08:49;;;;;;;11.23;5.10;;;;;;;7.07;60.24;101711.50;696947;28;1223;-95
2023/10/16 01:09:22;;;;;;;10.57;4.80;;;;;;;7.15;60.52;101726.63;691423;28;1229;-94
2023/10/16 01:09:43;;;;;;;6.40;4.15;;;;;;;7.18;60.13;101724.22;691341;28;1224;-94
2023/10/16 01:10:10;;;;;;;7.85;4.55;;;;;;;7.15;60.28;101730.13;694092;28;1301;-94
2023/10/16 01:10:48;;;;;;;8.82;4.72;;;;;;;7.17;60.42;101728.50;688797;28;1248;-94
2023/10/16 01:11:09;;;;;;;8.23;4.70;;;;;;;7.15;60.35;101726.63;696743;28;1423;-94
2023/10/16 01:11:30;;;;;;;6.97;4.30;;;;;;;7.14;60.19;101725.75;694004;28;1327;-94
2023/10/16 01:11:52;;;;;;;6.03;4.20;;;;;;;7.15;60.12;101718.84;691198;28;1184;-94
2023/10/16 01:12:13;;;;;;;5.38;4.13;;;;;;;7.09;60.18;101720.28;691205;28;1287;-94
2023/10/16 01:12:36;;;;;;;6.00;4.38;;;;;;;7.11;60.14;101729.06;696885;28;1171;-94
2023/10/16 01:12:57;;;;;;;8.75;4.53;;;;;;;7.12;60.52;101729.94;697883;28;1464;-94
2023/10/16 01:13:18;;;;;;;11.27;4.60;;;;;;;7.12;60.28;101728.25;696561;28;1466;-94
2023/10/16 01:13:39;;;;;;;13.05;5.10;;;;;;;7.12;60.65;101725.66;687846;28;1195;-94
2023/10/16 01:13:59;;;;;;;13.50;5.30;;;;;;;7.16;60.38;101725.81;688722;28;1289;-94
2023/10/16 01:14:20;;;;;;;11.05;5.15;;;;;;;7.09;60.45;101714.19;693661;28;1188;-94
2023/10/16 01:14:41;;;;;;;10.10;4.75;;;;;;;7.18;60.59;101730.28;688382;28;1196;-94
2023/10/16 01:15:06;;;;;;;9.18;4.95;;;;;;;7.13;60.27;101722.25;694187;28;1517;-94
2023/10/16 01:15:27;;;;;;;8.90;5.10;;;;;;;7.17;60.15;101717.25;693569;28;1327;-95
2023/10/16 01:15:50;;;;;;;9.88;5.07;;;;;;;7.18;60.48;101722.50;691281;28;1277;-95
2023/10/16 01:16:11;;;;;;;10.85;4.80;;;;;;;7.22;60.32;101720.97;691251;28;1302;-94
2023/10/16 01:16:32;;;;;;;11.35;5.20;;;;;;;7.24;60.42;101729.75;691374;28;1291;-94
2023/10/16 01:16:54;;;;;;;14.45;5.22;;;;;;;7.25;60.44;101718.59;693653;28;1284;-94
2023/10/16 01:17:15;;;;;;;11.93;5.15;;;;;;;7.30;60.40;101732.69;693946;28;1243;-95
2023/10/16 01:17:35;;;;;;;12.40;5.10;;;;;;;7.25;60.54;101721.19;696881;28;1199;-95
2023/10/16 01:17:56;;;;;;;9.80;5.32;;;;;;;7.22;60.33;101708.00;691278;28;1321;-95
2023/10/16 01:18:17;;;;;;;9.63;5.30;;;;;;;7.30;60.28;101724.91;691285;28;1213;-94
2023/10/16 01:18:40;;;;;;;8.23;5.45;;;;;;;7.25;60.42;101722.06;693552;28;1138;-94
2023/10/16 01:19:06;;;;;;;8.48;5.20;;;;;;;7.20;60.08;101709.63;691428;28;1306;-94
2023/10/16 01:19:28;;;;;;;9.60;5.28;;;;;;;7.19;60.24;101710.44;691258;28;1493;-94
2023/10/16 01:19:51;;;;;;;8.90;4.90;;;;;;;7.30;60.42;101727.50;693994;28;1262;-94
2023/10/16 01:20:12;;;;;;;7.85;4.90;;;;;;;7.23;60.27;101718.47;696769;28;1223;-94
2023/10/16 01:20:34;;;;;;;7.57;4.47;;;;;;;7.26;60.75;101720.38;694087;28;1200;-94
2023/10/16 01:20:55;;;;;;;7.00;4.72;;;;;;;7.34;60.62;101725.97;691275;28;1308;-95
2023/10/16 01:21:17;;;;;;;8.52;5.13;;;;;;;7.28;60.65;101710.94;691326;28;1307;-95
2023/10/16 01:21:39;;;;;;;10.10;5.80;;;;;;;7.31;60.75;101715.44;691358;28;1299;-95
2023/10/16 01:22:00;;;;;;;12.63;5.70;;;;;;;7.33;60.33;101714.72;691477;28;1438;-95
2023/10/16 01:22:22;;;;;;;10.32;5.10;;;;;;;7.35;60.30;101718.28;694013;28;1236;-94
2023/10/16 01:22:43;;;;;;;8.63;4.82;;;;;;;7.35;60.41;101717.38;694008;28;1399;-94
2023/10/16 01:23:07;;;;;;;9.07;5.10;;;;;;;7.36;60.63;101720.06;696898;28;1322;-94
2023/10/16 01:23:27;;;;;;;10.15;5.40;;;;;;;7.35;60.71;101717.38;694011;28;1229;-94
2023/10/16 01:23:51;;;;;;;8.30;5.03;;;;;;;7.38;60.15;101715.84;691360;28;1287;-94
2023/10/16 01:24:12;;;;;;;7.57;5.20;;;;;;;7.35;60.34;101712.19;693853;28;1930;-94
2023/10/16 01:24:33;;;;;;;6.63;4.78;;;;;;;7.33;60.54;101706.00;696876;28;1162;-94
2023/10/16 01:24:53;;;;;;;9.07;5.18;;;;;;;7.38;60.65;101710.66;696259;28;1307;-94
2023/10/16 01:25:17;;;;;;;9.70;5.07;;;;;;;7.41;60.38;101717.72;691077;28;1260;-95
2023/10/16 01:25:39;;;;;;;9.98;5.30;;;;;;;7.40;60.51;101716.84;688383;28;1378;-95
2023/10/16 01:25:59;;;;;;;8.23;5.30;;;;;;;7.37;60.15;101711.47;694164;28;1333;-95
2023/10/16 01:26:20;;;;;;;8.50;5.30;;;;;;;7.38;60.28;101707.19;691210;28;1153;-94
2023/10/16 01:26:42;;;;;;;7.93;5.13;;;;;;;7.36;60.88;101709.69;691112;28;1234;-95
2023/10/16 01:27:14;;;;;;;7.13;4.70;;;;;;;7.37;60.70;101716.66;690999;28;1526;-94
2023/10/16 01:27:38;;;;;;;7.40;4.60;;;;;;;7.40;60.74;101711.66;694031;28;1265;-94
2023/10/16 01:27:59;;;;;;;6.95;4.47;;;;;;;7.40;60.50;101710.75;694232;28;1309;-95
2023/10/16 01:28:20;;;;;;;7.73;4.57;;;;;;;7.40;60.93;101713.34;694013;28;1168;-94
2023/10/16 01:28:41;;;;;;;8.00;5.00;;;;;;;7.48;60.84;101721.56;685736;28;1321;-95
2023/10/16 01:29:07;;;;;;;7.67;5.10;;;;;;;7.44;60.84;101711.81;691380;28;1188;-95
2023/10/16 01:29:28;;;;;;;6.45;4.45;;;;;;;7.45;60.88;101722.31;691425;28;1195;-95
2023/10/16 01:29:48;;;;;;;6.60;4.57;;;;;;;7.44;60.77;101719.59;699535;28;1264;-95
2023/10/16 01:30:09;;;;;;;10.03;4.87;;;;;;;7.44;60.72;101714.41;694185;28;1221;-95
2023/10/16 01:30:30;;;;;;;12.85;5.25;;;;;;;7.46;60.96;101716.28;696855;28;1680;-94
2023/10/16 01:30:52;;;;;;;13.40;5.50;;;;;;;7.40;60.54;101713.34;694035;28;1135;-94
2023/10/16 01:31:13;;;;;;;9.63;5.10;;;;;;;7.45;60.88;101716.19;688525;28;1368;-95
2023/10/16 01:31:36;;;;;;;7.32;4.72;;;;;;;7.38;61.04;101702.00;693945;28;1346;-95
2023/10/16 01:31:56;;;;;;;11.95;4.80;;;;;;;7.47;60.59;101717.16;688286;28;1314;-95
2023/10/16 01:32:17;;;;;;;11.63;4.80;;;;;;;7.46;61.09;101713.69;688483;28;1174;-94
2023/10/16 01:32:38;;;;;;;11.13;4.90;;;;;;;7.44;60.75;101706.63;691074;28;1218;-94
2023/10/16 01:33:00;;;;;;;9.20;4.95;;;;;;;7.40;60.94;101709.06;691317;28;1373;-96
2023/10/16 01:33:23;;;;;;;12.20;5.20;;;;;;;7.49;60.98;101716.47;691271;28;1261;-95
2023/10/16 01:33:46;;;;;;;13.60;5.35;;;;;;;7.43;61.07;101704.84;696748;28;1311;-95
2023/10/16 01:34:12;;;;;;;11.07;5.15;;;;;;;7.54;60.66;101719.31;688654;28;1414;-95
2023/10/16 01:34:34;;;;;;;10.50;5.28;;;;;;;7.49;60.66;101712.97;693989;28;1235;-95
2023/10/16 01:34:56;;;;;;;11.00;5.32;;;;;;;7.53;60.95;101726.22;694094;28;1334;-95
2023/10/16 01:35:18;;;;;;;11.23;5.28;;;;;;;7.48;60.54;101705.97;699410;28;1212;-94
2023/10/16 01:35:39;;;;;;;8.05;5.03;;;;;;;7.52;60.65;101715.75;694078;28;1196;-95
2023/10/16 01:36:00;;;;;;;6.67;4.73;;;;;;;7.50;61.10;101713.03;691488;28;1129;-94
2023/10/16 01:36:21;;;;;;;6.72;4.80;;;;;;;7.45;61.00;101703.22;693987;28;1271;-95
2023/10/16 01:36:47;;;;;;;8.43;5.03;;;;;;;7.47;60.74;101710.28;699276;28;1371;-95
2023/10/16 01:37:09;;;;;;;9.68;5.10;;;;;;;7.46;60.69;101710.19;691384;28;1291;-95
2023/10/16 01:37:30;;;;;;;8.88;5.10;;;;;;;7.40;60.68;101695.16;694061;28;1330;-94
2023/10/16 01:37:53;;;;;;;9.55;5.10;;;;;;;7.43;60.46;101713.50;694083;28;1449;-95
2023/10/16 01:38:17;;;;;;;11.23;5.03;;;;;;;7.46;60.47;101717.97;688013;28;1304;-94
2023/10/16 01:38:38;;;;;;;13.23;5.32;;;;;;;7.40;60.72;101716.84;696706;28;1464;-95
2023/10/16 01:39:05;;;;;;;11.47;5.30;;;;;;;7.44;61.03;101717.00;696919;28;1237;-95
2023/10/16 01:40:21;;;;;;;11.65;5.20;;;;;;;7.36;60.97;101706.19;696868;28;1351;-95
2023/10/16 01:41:05;;;;;;;11.07;5.32;;;;;;;7.42;60.59;101723.84;694022;28;1267;-94
2023/10/16 01:41:26;;;;;;;7.45;4.60;;;;;;;7.35;60.91;101710.50;688248;28;1450;-95
2023/10/16 01:41:52;;;;;;;7.80;4.70;;;;;;;7.33;60.75;101712.13;696729;28;1128;-95
2023/10/16 01:42:12;;;;;;;8.70;4.97;;;;;;;7.31;60.66;101705.91;691209;28;1234;-95
2023/10/16 01:42:33;;;;;;;9.20;5.17;;;;;;;7.33;60.79;101709.53;691578;28;1160;-94
2023/10/16 01:42:54;;;;;;;9.93;5.47;;;;;;;7.29;60.53;101707.53;693880;28;1286;-95
2023/10/16 01:43:15;;;;;;;8.60;5.43;;;;;;;7.32;60.72;101710.34;693843;28;1370;-95
2023/10/16 01:43:37;;;;;;;7.80;5.15;;;;;;;7.27;60.55;101717.84;693985;28;1211;-94
2023/10/16 01:43:59;;;;;;;6.82;4.80;;;;;;;7.24;60.85;101706.38;694204;28;1219;-94
2023/10/16 01:44:19;;;;;;;6.57;4.32;;;;;;;7.23;61.02;101702.00;685585;28;1954;-94
2023/10/16 01:44:43;;;;;;;8.25;5.40;;;;;;;7.26;60.85;101712.56;691160;28;1212;-94
2023/10/16 01:45:04;;;;;;;9.88;5.63;;;;;;;7.22;60.65;101708.91;693554;28;1233;-95
2023/10/16 01:45:27;;;;;;;10.77;6.22;;;;;;;7.21;60.48;101708.81;690804;28;1256;-94
2023/10/16 01:45:51;;;;;;;11.80;5.20;;;;;;;7.17;61.04;101702.53;688580;28;1371;-94
2023/10/16 01:46:13;;;;;;;8.20;4.70;;;;;;;7.16;60.72;101702.44;696132;28;1533;-95
2023/10/16 01:46:33;;;;;;;6.50;4.53;;;;;;;7.17;60.98;101701.66;693972;28;1396;-95
2023/10/16 01:46:55;;;;;;;9.13;5.07;;;;;;;7.20;60.83;101701.84;693789;28;1332;-94
2023/10/16 01:47:16;;;;;;;10.30;5.25;;;;;;;7.11;60.92;101695.31;696623;28;1357;-94
2023/10/16 01:47:37;;;;;;;11.07;5.40;;;;;;;7.19;61.08;101703.53;699461;28;1290;-94
2023/10/16 01:48:04;;;;;;;8.73;5.10;;;;;;;7.17;61.02;101704.28;691299;28;1414;-95
2023/10/16 01:48:28;;;;;;;8.75;4.95;;;;;;;7.07;60.95;101690.72;691034;28;1426;-94
2023/10/16 01:48:49;;;;;;;7.68;4.68;;;;;;;7.14;60.79;101697.19;692769;28;1426;-94
2023/10/16 01:49:11;;;;;;;8.75;4.95;;;;;;;7.10;60.94;101693.53;693429;28;1254;-95
2023/10/16 01:49:31;;;;;;;8.60;5.15;;;;;;;7.15;60.76;101700.66;694127;28;1180;-95
2023/10/16 01:49:54;;;;;;;9.40;5.35;;;;;;;7.20;60.86;101709.63;688640;28;1210;-94
2023/10/16 01:50:22;;;;;;;12.80;5.60;;;;;;;7.15;60.84;101704.16;696158;28;1357;-94
2023/10/16 01:50:45;;;;;;;12.15;5.55;;;;;;;7.18;60.70;101703.47;691197;28;1258;-95
2023/10/16 01:51:09;;;;;;;10.77;5.25;;;;;;;7.12;61.19;101699.69;688559;28;1373;-94
2023/10/16 01:51:30;;;;;;;8.88;5.10;;;;;;;7.12;60.70;101699.69;694083;28;1437;-94
2023/10/16 01:51:51;;;;;;;10.05;4.90;;;;;;;7.05;60.83;101692.34;691398;28;1229;-94